Time;durP1;ratioP1;P1;durP2;ratioP2;P2;SDS_P1;SDS_P2;PMS_P1;PMS_P2;Temp;Humidity;BMP_temperature;BMP_pressure;BME280_temperature;BME280_humidity;BME280_pressure;Samples;Min_cycle;Max_cycle;Signal;HPM_P1;HPM_P2
2022/09/11 00:01:05;;;;;;;6.00;2.30;;;;;;;17.62;71.42;99817.28;4857900;28;98072;-85
2022/09/11 00:03:31;;;;;;;6.88;2.70;;;;;;;17.62;72.08;99830.56;4838419;28;97011;-82
2022/09/11 00:06:09;;;;;;;4.50;2.50;;;;;;;17.58;71.84;99829.09;4851986;28;96784;-79
2022/09/11 00:08:35;;;;;;;4.28;2.65;;;;;;;17.61;71.59;99824.41;4821333;28;101727;-78
2022/09/11 00:11:12;;;;;;;5.57;2.38;;;;;;;17.58;71.60;99818.47;4864375;28;97497;-81
2022/09/11 00:13:39;;;;;;;4.43;1.98;;;;;;;17.51;71.99;99835.75;4844042;28;96921;-79
2022/09/11 00:16:06;;;;;;;2.03;1.83;;;;;;;17.46;72.00;99827.31;4841399;28;97975;-79
2022/09/11 00:18:36;;;;;;;3.72;1.83;;;;;;;17.50;71.86;99826.13;4845444;28;101171;-80
2022/09/11 00:21:02;;;;;;;3.88;2.30;;;;;;;17.46;72.29;99829.94;4843168;28;97565;-81
2022/09/11 00:23:28;;;;;;;7.20;2.17;;;;;;;17.41;72.16;99825.81;4840209;29;96646;-78
2022/09/11 00:25:54;;;;;;;3.50;1.92;;;;;;;17.46;72.29;99828.16;4838932;28;96860;-78
2022/09/11 00:28:22;;;;;;;2.92;2.08;;;;;;;17.49;72.20;99830.59;4857191;28;98428;-79
2022/09/11 00:31:03;;;;;;;4.72;2.20;;;;;;;17.39;72.47;99826.84;4839731;28;100985;-80
2022/09/11 00:33:32;;;;;;;2.90;1.90;;;;;;;17.35;72.42;99818.28;4827132;28;96797;-79
2022/09/11 00:36:04;;;;;;;3.70;2.17;;;;;;;17.33;73.01;99840.56;4840552;28;97079;-79
2022/09/11 00:38:32;;;;;;;5.82;2.13;;;;;;;17.30;72.72;99819.56;4847237;28;98632;-81
2022/09/11 00:40:59;;;;;;;4.50;2.42;;;;;;;17.34;73.14;99829.00;4836598;28;101594;-78
2022/09/11 00:43:26;;;;;;;2.88;2.20;;;;;;;17.30;73.04;99811.59;4858019;28;97658;-79
2022/09/11 00:45:56;;;;;;;7.03;2.30;;;;;;;17.36;73.14;99814.66;4863199;28;96830;-78
2022/09/11 00:48:24;;;;;;;3.92;2.70;;;;;;;17.41;72.88;99823.16;4855218;28;97411;-79
2022/09/11 00:50:51;;;;;;;4.15;2.45;;;;;;;17.42;73.04;99824.00;4841210;28;101410;-79
2022/09/11 00:53:19;;;;;;;3.80;2.53;;;;;;;17.30;73.69;99825.69;4847534;28;97304;-78
2022/09/11 00:55:52;;;;;;;5.43;2.95;;;;;;;17.31;73.99;99824.75;4855999;28;96954;-78
2022/09/11 00:58:23;;;;;;;4.35;2.53;;;;;;;17.32;73.64;99825.59;4845529;28;101774;-78
2022/09/11 01:00:51;;;;;;;4.10;2.65;;;;;;;17.23;74.00;99800.56;4827023;28;100653;-79
2022/09/11 01:03:18;;;;;;;5.00;2.22;;;;;;;17.32;73.66;99818.50;4845440;28;96696;-78
2022/09/11 01:05:44;;;;;;;5.47;2.10;;;;;;;17.32;73.53;99804.38;4826908;28;97417;-79
2022/09/11 01:08:10;;;;;;;6.47;2.25;;;;;;;17.45;73.28;99828.22;4846091;29;98057;-78
2022/09/11 01:10:49;;;;;;;4.28;2.33;;;;;;;17.26;73.65;99805.66;4844695;28;100997;-79
2022/09/11 01:13:22;;;;;;;3.45;2.38;;;;;;;17.29;73.58;99821.34;4860516;28;97152;-78
2022/09/11 01:16:07;;;;;;;3.95;2.55;;;;;;;17.20;73.72;99817.53;4858344;28;96785;-78
2022/09/11 01:18:57;;;;;;;5.20;2.63;;;;;;;17.27;73.76;99815.31;4857691;28;101576;-78
2022/09/11 01:21:40;;;;;;;5.05;2.20;;;;;;;17.23;73.14;99795.28;4844238;28;101400;-78
2022/09/11 01:24:13;;;;;;;5.60;2.28;;;;;;;17.29;73.81;99813.41;4857319;28;97136;-78
2022/09/11 01:26:45;;;;;;;4.57;2.47;;;;;;;17.26;74.05;99815.44;4873332;28;96762;-79
2022/09/11 01:29:21;;;;;;;3.85;2.63;;;;;;;17.00;74.56;99786.25;4856544;28;102073;-81
2022/09/11 01:31:55;;;;;;;5.55;2.33;;;;;;;17.26;74.17;99818.06;4852875;28;97786;-80
2022/09/11 01:34:30;;;;;;;3.33;2.30;;;;;;;17.09;74.18;99803.34;4829909;28;97315;-78
2022/09/11 01:37:06;;;;;;;6.72;2.47;;;;;;;17.14;74.65;99802.06;4853381;28;96799;-78
2022/09/11 01:39:37;;;;;;;4.03;2.75;;;;;;;16.98;74.82;99786.34;4849859;28;102856;-82
2022/09/11 01:42:07;;;;;;;5.25;2.70;;;;;;;17.09;74.36;99800.69;4843439;28;101756;-79
2022/09/11 01:44:38;;;;;;;3.45;2.53;;;;;;;17.16;74.93;99809.91;4845302;28;97225;-79
2022/09/11 01:47:09;;;;;;;4.82;2.47;;;;;;;17.19;74.38;99810.56;4845361;28;97631;-84
2022/09/11 01:49:38;;;;;;;3.67;2.33;;;;;;;17.23;74.55;99808.53;4861250;28;101382;-79
2022/09/11 01:52:09;;;;;;;4.35;2.53;;;;;;;17.23;74.45;99811.19;4841940;29;101561;-79
2022/09/11 01:54:41;;;;;;;5.45;3.03;;;;;;;17.24;74.77;99807.56;4860925;28;97689;-79
2022/09/11 01:57:43;;;;;;;2.92;2.30;;;;;;;17.19;74.69;99812.34;4845782;28;96831;-79
2022/09/11 02:00:11;;;;;;;6.60;2.70;;;;;;;17.13;74.94;99810.09;4835421;28;100723;-80
2022/09/11 02:02:57;;;;;;;6.68;3.00;;;;;;;16.96;74.96;99793.59;4855411;28;101921;-79
2022/09/11 02:05:27;;;;;;;3.25;2.30;;;;;;;17.02;75.47;99791.47;4844849;28;98533;-81
2022/09/11 02:08:26;;;;;;;6.03;3.17;;;;;;;17.07;75.60;99808.72;4860906;28;97209;-79
2022/09/11 02:11:06;;;;;;;3.10;2.20;;;;;;;16.99;75.54;99789.88;4807955;28;101329;-79
2022/09/11 02:13:41;;;;;;;2.97;2.28;;;;;;;17.12;75.33;99809.25;4860605;28;101376;-80
2022/09/11 02:16:22;;;;;;;3.22;2.53;;;;;;;17.23;74.64;99818.28;4841926;28;96916;-80
2022/09/11 02:19:16;;;;;;;4.88;2.80;;;;;;;17.18;75.13;99805.34;4852530;28;97057;-79
2022/09/11 02:21:43;;;;;;;5.22;2.75;;;;;;;17.11;75.45;99804.09;4860341;28;97696;-79
2022/09/11 02:24:09;;;;;;;4.90;2.80;;;;;;;17.14;75.06;99803.88;4858064;29;98397;-79
2022/09/11 02:26:42;;;;;;;7.88;2.75;;;;;;;17.11;75.18;99806.75;4842208;28;96766;-80
2022/09/11 02:29:10;;;;;;;4.07;2.70;;;;;;;17.06;74.93;99790.28;4850292;28;97244;-86
2022/09/11 02:31:36;;;;;;;6.00;2.72;;;;;;;17.10;74.68;99774.03;4871498;28;101743;-80
2022/09/11 02:34:01;;;;;;;7.82;3.85;;;;;;;17.21;74.47;99786.56;4844367;28;101330;-81
2022/09/11 02:36:34;;;;;;;8.25;3.40;;;;;;;17.12;74.78;99793.34;4847542;28;96718;-81
2022/09/11 02:39:16;;;;;;;4.88;2.88;;;;;;;17.05;74.94;99789.44;4846177;28;96929;-79
2022/09/11 02:41:56;;;;;;;5.60;3.20;;;;;;;16.97;75.15;99789.13;4849248;28;101648;-79
2022/09/11 02:44:23;;;;;;;5.07;3.40;;;;;;;17.10;74.91;99797.06;4856007;28;101943;-80
2022/09/11 02:47:08;;;;;;;4.72;3.05;;;;;;;16.94;74.61;99774.28;4858732;28;97321;-79
2022/09/11 02:49:58;;;;;;;6.38;2.90;;;;;;;17.05;74.07;99781.50;4851894;28;97818;-80
2022/09/11 02:52:50;;;;;;;3.13;2.83;;;;;;;17.02;74.59;99792.31;4855076;28;100980;-81
2022/09/11 02:55:25;;;;;;;6.95;3.20;;;;;;;16.98;74.79;99798.75;4838237;29;100341;-80
2022/09/11 02:58:03;;;;;;;6.45;2.70;;;;;;;16.84;74.65;99788.25;4847862;28;97185;-80
2022/09/11 03:00:30;;;;;;;8.63;3.72;;;;;;;16.82;74.99;99801.63;4828809;28;96862;-82
2022/09/11 03:02:56;;;;;;;5.75;3.25;;;;;;;16.77;75.08;99787.84;4858990;28;101369;-79
2022/09/11 03:05:22;;;;;;;6.40;2.85;;;;;;;16.80;75.02;99779.66;4828082;28;101679;-80
2022/09/11 03:07:48;;;;;;;5.72;3.13;;;;;;;16.79;75.00;99783.28;4860005;28;97042;-79
2022/09/11 03:10:13;;;;;;;5.15;3.40;;;;;;;16.79;75.06;99801.84;4838070;28;96888;-80
2022/09/11 03:12:40;;;;;;;8.15;3.20;;;;;;;16.72;75.22;99800.50;4840311;29;98117;-79
2022/09/11 03:15:09;;;;;;;5.43;2.80;;;;;;;16.82;75.08;99804.28;4846157;28;101030;-80
2022/09/11 03:17:36;;;;;;;6.55;3.00;;;;;;;16.84;75.27;99806.81;4844117;28;96684;-80
2022/09/11 03:20:03;;;;;;;7.47;3.38;;;;;;;16.74;75.41;99799.44;4843661;28;96980;-80
2022/09/11 03:22:29;;;;;;;7.75;2.95;;;;;;;16.81;74.94;99813.16;4854985;28;98434;-79
2022/09/11 03:24:56;;;;;;;5.63;2.90;;;;;;;16.80;75.46;99806.19;4854593;28;98034;-80
2022/09/11 03:27:24;;;;;;;7.50;2.60;;;;;;;16.80;74.85;99798.22;4849607;28;96886;-79
2022/09/11 03:29:50;;;;;;;5.90;2.92;;;;;;;16.83;74.88;99807.78;4835767;28;97361;-80
2022/09/11 03:32:16;;;;;;;6.10;3.00;;;;;;;16.79;74.97;99801.84;4842637;28;101248;-80
2022/09/11 03:34:41;;;;;;;5.00;2.92;;;;;;;16.63;74.88;99793.19;4871626;28;101282;-80
2022/09/11 03:37:07;;;;;;;7.78;3.08;;;;;;;16.78;74.68;99823.97;4854028;28;96673;-82
2022/09/11 03:39:32;;;;;;;7.15;2.70;;;;;;;16.72;74.98;99829.66;4845005;28;96972;-80
2022/09/11 03:41:58;;;;;;;11.90;2.70;;;;;;;16.73;74.60;99829.56;4843540;28;99934;-82
2022/09/11 03:44:24;;;;;;;7.72;2.75;;;;;;;16.69;74.88;99828.06;4843054;28;100729;-80
2022/09/11 03:46:51;;;;;;;3.00;2.47;;;;;;;16.70;74.69;99826.28;4827629;28;97200;-80
2022/09/11 03:49:19;;;;;;;5.18;2.28;;;;;;;16.64;75.05;99819.59;4858585;28;97222;-81
2022/09/11 03:51:46;;;;;;;4.43;2.60;;;;;;;16.51;75.31;99800.16;4842655;28;101515;-80
2022/09/11 03:54:14;;;;;;;8.25;2.33;;;;;;;16.67;75.18;99831.78;4827744;28;101430;-86
2022/09/11 03:56:39;;;;;;;6.28;2.42;;;;;;;16.60;75.49;99833.97;4860131;28;96757;-80
2022/09/11 03:59:05;;;;;;;5.80;2.80;;;;;;;16.55;75.16;99822.88;4827260;28;97164;-80
2022/09/11 04:01:30;;;;;;;8.80;3.47;;;;;;;16.62;75.16;99828.59;4844858;28;100895;-82
2022/09/11 04:03:56;;;;;;;8.75;2.60;;;;;;;16.62;75.32;99833.88;4842551;28;101189;-79
2022/09/11 04:06:28;;;;;;;6.55;2.50;;;;;;;16.60;75.21;99831.34;4847410;28;96721;-79
2022/09/11 04:08:54;;;;;;;4.45;2.83;;;;;;;16.58;75.33;99819.13;4831815;28;96912;-80
2022/09/11 04:11:21;;;;;;;4.25;2.80;;;;;;;16.55;75.15;99817.56;4829639;28;101237;-81
2022/09/11 04:13:48;;;;;;;9.30;3.10;;;;;;;16.65;75.10;99828.38;4853928;28;102066;-79
2022/09/11 04:16:17;;;;;;;4.70;3.08;;;;;;;16.57;75.17;99820.09;4842818;28;97307;-80
2022/09/11 04:18:46;;;;;;;8.13;3.50;;;;;;;16.62;75.32;99832.09;4824143;28;99822;-82
2022/09/11 04:21:14;;;;;;;5.22;2.97;;;;;;;16.58;75.52;99835.03;4826581;28;101041;-79
2022/09/11 04:23:40;;;;;;;7.32;3.72;;;;;;;16.57;75.78;99822.75;4827434;28;100969;-80
2022/09/11 04:26:20;;;;;;;4.53;2.97;;;;;;;16.56;75.60;99831.66;4837212;28;97082;-80
2022/09/11 04:28:49;;;;;;;4.53;3.35;;;;;;;16.50;76.00;99815.22;4869800;28;96721;-80
2022/09/11 04:31:16;;;;;;;4.63;3.15;;;;;;;16.66;75.44;99832.72;4850009;28;101325;-80
2022/09/11 04:33:43;;;;;;;5.50;3.50;;;;;;;16.72;75.12;99827.84;4830144;28;101617;-82
2022/09/11 04:36:20;;;;;;;4.82;3.30;;;;;;;16.60;75.83;99828.69;4852125;28;97128;-82
2022/09/11 04:38:47;;;;;;;6.90;3.08;;;;;;;16.60;75.51;99831.34;4827119;29;96737;-81
2022/09/11 04:41:15;;;;;;;8.18;3.00;;;;;;;16.65;75.79;99831.03;4854347;28;101117;-87
2022/09/11 04:43:41;;;;;;;4.70;2.90;;;;;;;16.58;75.55;99813.84;4843558;28;101722;-81
2022/09/11 04:46:14;;;;;;;6.25;2.83;;;;;;;16.55;75.60;99825.50;4842926;28;96754;-80
2022/09/11 04:48:48;;;;;;;7.30;2.15;;;;;;;16.57;75.48;99826.22;4851727;28;96731;-80
2022/09/11 04:51:26;;;;;;;4.78;2.47;;;;;;;16.57;75.82;99828.03;4845337;28;102215;-80
2022/09/11 04:53:59;;;;;;;6.20;2.85;;;;;;;16.55;75.62;99828.16;4854846;28;101386;-80
2022/09/11 04:56:33;;;;;;;6.60;2.80;;;;;;;16.66;75.46;99838.88;4852461;28;97464;-80
2022/09/11 04:59:01;;;;;;;4.82;2.58;;;;;;;16.62;75.40;99828.59;4849507;28;96794;-80
2022/09/11 05:01:29;;;;;;;4.40;2.70;;;;;;;16.51;75.50;99816.91;4841115;28;101124;-80
2022/09/11 05:03:59;;;;;;;4.68;2.05;;;;;;;16.61;75.17;99830.41;4842503;28;101491;-79
2022/09/11 05:06:26;;;;;;;3.05;1.90;;;;;;;16.61;75.14;99833.03;4843509;28;97912;-81
2022/09/11 05:08:52;;;;;;;3.72;1.88;;;;;;;16.60;75.52;99827.84;4852642;28;97254;-80
2022/09/11 05:11:19;;;;;;;2.95;1.90;;;;;;;16.58;75.01;99817.34;4850453;28;101378;-81
2022/09/11 05:13:45;;;;;;;3.92;1.77;;;;;;;16.68;75.01;99834.31;4853082;28;100988;-82
2022/09/11 05:16:13;;;;;;;6.50;1.92;;;;;;;16.71;75.00;99834.13;4850011;28;96841;-80
2022/09/11 05:18:41;;;;;;;3.58;2.00;;;;;;;16.69;74.93;99833.34;4859120;28;97199;-79
2022/09/11 05:21:12;;;;;;;2.85;1.90;;;;;;;16.70;74.92;99832.44;4848493;28;101445;-80
2022/09/11 05:23:38;;;;;;;2.40;2.00;;;;;;;16.71;74.96;99839.41;4838147;29;101478;-80
2022/09/11 05:26:06;;;;;;;4.35;2.20;;;;;;;16.73;74.85;99831.38;4837502;28;97254;-80
2022/09/11 05:28:32;;;;;;;4.93;1.83;;;;;;;16.78;74.78;99839.03;4844301;29;96994;-80
2022/09/11 05:30:59;;;;;;;4.38;2.50;;;;;;;16.79;75.29;99841.59;4844081;28;101243;-81
2022/09/11 05:33:26;;;;;;;4.57;2.40;;;;;;;16.85;74.95;99835.03;4822951;28;101400;-80
2022/09/11 05:35:53;;;;;;;9.68;2.83;;;;;;;16.81;74.78;99831.72;4841886;28;96891;-81
2022/09/11 05:38:21;;;;;;;3.88;2.08;;;;;;;16.90;74.83;99836.41;4845953;28;96989;-80
2022/09/11 05:40:50;;;;;;;5.78;1.90;;;;;;;16.90;74.78;99824.94;4838257;28;99776;-79
2022/09/11 05:43:18;;;;;;;2.67;2.10;;;;;;;16.96;74.60;99843.94;4820098;29;101011;-79
2022/09/11 05:45:52;;;;;;;5.97;2.40;;;;;;;16.94;74.82;99840.53;4852470;28;96883;-80
2022/09/11 05:48:18;;;;;;;4.20;2.50;;;;;;;16.98;74.77;99849.97;4847820;28;97385;-80
2022/09/11 05:51:14;;;;;;;6.65;2.92;;;;;;;16.98;74.96;99847.31;4844677;28;100790;-79
2022/09/11 05:53:40;;;;;;;7.60;2.67;;;;;;;16.94;74.81;99831.75;4851230;28;100752;-80
2022/09/11 05:56:15;;;;;;;4.75;2.08;;;;;;;17.06;74.79;99846.81;4826573;28;96802;-80
2022/09/11 05:58:45;;;;;;;5.57;2.50;;;;;;;17.08;74.97;99860.81;4845463;28;97022;-80
2022/09/11 06:01:13;;;;;;;3.35;2.33;;;;;;;17.09;75.14;99859.88;4828878;28;102275;-81
2022/09/11 06:03:42;;;;;;;7.82;3.28;;;;;;;17.02;75.35;99848.00;4839997;28;102239;-81
2022/09/11 06:06:10;;;;;;;5.22;2.50;;;;;;;17.09;75.83;99861.66;4846459;28;96818;-80
2022/09/11 06:08:37;;;;;;;7.85;3.05;;;;;;;17.10;75.34;99850.94;4817583;28;97129;-82
2022/09/11 06:11:08;;;;;;;7.53;3.60;;;;;;;17.14;75.21;99860.41;4823491;28;101415;-81
2022/09/11 06:13:37;;;;;;;4.65;3.90;;;;;;;17.07;75.48;99851.16;4837360;28;101257;-81
2022/09/11 06:16:06;;;;;;;6.28;3.33;;;;;;;17.19;75.16;99865.38;4850289;28;97475;-81
2022/09/11 06:18:32;;;;;;;5.75;3.60;;;;;;;17.23;75.15;99871.34;4843745;28;97285;-80
2022/09/11 06:21:05;;;;;;;4.35;3.92;;;;;;;17.17;74.95;99859.34;4831278;29;101669;-82
2022/09/11 06:23:40;;;;;;;4.80;4.20;;;;;;;17.14;74.79;99849.78;4858663;28;101208;-81
2022/09/11 06:26:11;;;;;;;9.68;4.10;;;;;;;17.30;74.74;99869.94;4856347;28;97047;-79
2022/09/11 06:28:40;;;;;;;7.90;4.65;;;;;;;17.26;74.76;99873.78;4847747;28;96861;-81
2022/09/11 06:31:08;;;;;;;11.40;4.15;;;;;;;17.12;75.39;99854.34;4860119;28;97941;-82
2022/09/11 06:33:36;;;;;;;7.97;4.40;;;;;;;17.13;75.21;99857.84;4823950;28;98306;-80
2022/09/11 06:36:04;;;;;;;9.43;5.78;;;;;;;17.16;75.40;99879.72;4838525;28;96789;-81
2022/09/11 06:38:32;;;;;;;7.82;5.35;;;;;;;17.04;74.83;99859.31;4862561;28;98890;-80
2022/09/11 06:41:04;;;;;;;9.10;5.70;;;;;;;17.18;74.95;99879.59;4852209;28;101566;-81
2022/09/11 06:43:34;;;;;;;7.50;5.65;;;;;;;17.15;74.81;99878.00;4860467;28;101818;-82
2022/09/11 06:46:04;;;;;;;6.72;5.03;;;;;;;17.13;75.39;99877.28;4843066;28;97362;-82
2022/09/11 06:48:32;;;;;;;6.47;5.38;;;;;;;17.12;75.00;99861.47;4875200;28;97091;-81
2022/09/11 06:51:02;;;;;;;7.68;5.25;;;;;;;17.16;74.79;99874.41;4842029;28;100799;-82
2022/09/11 06:53:28;;;;;;;10.17;6.13;;;;;;;17.23;74.56;99881.94;4836871;28;101423;-85
2022/09/11 06:56:01;;;;;;;11.35;5.90;;;;;;;17.28;74.36;99886.00;4855354;28;97244;-79
2022/09/11 06:58:30;;;;;;;8.55;5.47;;;;;;;17.30;74.07;99872.59;4839819;28;97031;-83
2022/09/11 07:01:02;;;;;;;6.70;5.70;;;;;;;17.25;73.94;99875.59;4838795;28;102035;-81
2022/09/11 07:03:29;;;;;;;8.27;6.40;;;;;;;17.16;74.38;99862.94;4847354;28;101180;-81
2022/09/11 07:05:55;;;;;;;8.82;6.43;;;;;;;17.32;74.20;99895.41;4844789;28;96751;-80
2022/09/11 07:08:20;;;;;;;6.95;6.07;;;;;;;17.33;74.95;99904.22;4842519;28;97970;-84
2022/09/11 07:10:46;;;;;;;9.05;6.70;;;;;;;17.33;74.89;99898.91;4871234;28;97658;-82
2022/09/11 07:13:12;;;;;;;10.80;6.80;;;;;;;17.16;74.45;99860.28;4824542;28;101282;-84
2022/09/11 07:15:38;;;;;;;6.95;5.63;;;;;;;17.25;74.15;99883.53;4856366;28;97393;-84
2022/09/11 07:18:05;;;;;;;8.40;6.03;;;;;;;17.37;74.50;99903.91;4837539;28;96945;-81
2022/09/11 07:20:31;;;;;;;9.15;5.90;;;;;;;17.32;74.64;99883.97;4857221;28;101556;-83
2022/09/11 07:22:57;;;;;;;8.80;5.05;;;;;;;17.43;74.78;99900.00;4857560;28;101528;-82
2022/09/11 07:25:25;;;;;;;7.45;5.85;;;;;;;17.41;74.80;99888.63;4836666;28;97501;-82
2022/09/11 07:27:51;;;;;;;8.52;5.30;;;;;;;17.51;74.56;99899.44;4859945;28;99853;-82
2022/09/11 07:30:18;;;;;;;7.65;5.70;;;;;;;17.51;74.46;99887.06;4843898;28;100944;-82
2022/09/11 07:32:48;;;;;;;7.45;5.22;;;;;;;17.66;74.67;99893.09;4849481;28;100014;-81
2022/09/11 07:35:20;;;;;;;7.78;6.25;;;;;;;17.74;74.62;99896.03;4832990;28;97183;-81
2022/09/11 07:37:47;;;;;;;6.57;4.68;;;;;;;17.84;74.16;99889.16;4849352;28;97963;-83
2022/09/11 07:40:13;;;;;;;7.15;4.68;;;;;;;17.89;73.89;99870.25;4851248;28;101550;-81
2022/09/11 07:42:40;;;;;;;7.40;5.13;;;;;;;18.02;73.43;99878.19;4847347;28;101308;-84
2022/09/11 07:45:06;;;;;;;6.75;4.97;;;;;;;18.02;73.44;99889.66;4836515;28;97381;-82
2022/09/11 07:47:33;;;;;;;4.95;4.45;;;;;;;18.00;73.52;99888.06;4865070;28;97260;-82
2022/09/11 07:50:00;;;;;;;6.68;4.95;;;;;;;18.18;73.09;99891.19;4848348;28;100968;-83
2022/09/11 07:52:25;;;;;;;6.68;4.30;;;;;;;18.13;72.54;99891.53;4852287;28;101167;-80
2022/09/11 07:54:55;;;;;;;5.20;4.17;;;;;;;18.13;72.99;99885.38;4826542;28;97562;-79
2022/09/11 07:57:26;;;;;;;5.47;4.40;;;;;;;18.21;72.59;99893.63;4845404;28;97170;-83
2022/09/11 07:59:51;;;;;;;8.57;4.38;;;;;;;18.19;72.40;99899.06;4863779;28;97933;-82
2022/09/11 08:02:18;;;;;;;5.30;3.83;;;;;;;18.22;72.60;99893.53;4828135;29;101826;-79
2022/09/11 08:04:44;;;;;;;5.65;4.00;;;;;;;18.31;72.68;99910.59;4852958;28;97083;-80
2022/09/11 08:07:10;;;;;;;6.03;4.65;;;;;;;18.18;72.64;99902.69;4866287;28;96906;-81
2022/09/11 08:09:36;;;;;;;5.40;4.18;;;;;;;18.12;72.84;99895.13;4857114;28;101896;-80
2022/09/11 08:12:03;;;;;;;5.25;3.88;;;;;;;18.26;72.88;99910.09;4836491;28;101430;-78
2022/09/11 08:14:31;;;;;;;4.90;3.47;;;;;;;18.25;72.86;99908.41;4836958;28;97552;-81
2022/09/11 08:17:03;;;;;;;4.72;3.28;;;;;;;17.99;72.98;99873.94;4849486;28;97223;-81
2022/09/11 08:19:30;;;;;;;6.47;3.83;;;;;;;18.20;72.99;99910.53;4853278;28;101872;-78
2022/09/11 08:21:59;;;;;;;4.68;4.28;;;;;;;18.22;73.15;99917.44;4863891;28;101744;-78
2022/09/11 08:24:26;;;;;;;4.80;4.30;;;;;;;18.31;72.85;99921.22;4854779;28;98311;-78
2022/09/11 08:26:56;;;;;;;7.65;5.03;;;;;;;18.29;72.78;99917.81;4856231;28;97516;-79
2022/09/11 08:29:23;;;;;;;9.60;7.40;;;;;;;18.38;72.66;99917.16;4850430;28;101017;-82
2022/09/11 08:31:50;;;;;;;7.75;4.78;;;;;;;18.33;72.31;99912.19;4824644;28;101516;-81
2022/09/11 08:34:16;;;;;;;8.57;4.38;;;;;;;18.77;71.06;99924.06;4835881;28;96871;-79
2022/09/11 08:36:43;;;;;;;6.53;4.60;;;;;;;19.15;69.99;99916.81;4844260;28;97130;-79
2022/09/11 08:39:10;;;;;;;5.43;4.05;;;;;;;19.20;69.63;99899.53;4856388;28;101009;-78
2022/09/11 08:41:46;;;;;;;;;;;;;;;19.43;69.31;99926.16;4861455;28;101395;-79
2022/09/11 08:44:21;;;;;;;4.10;2.97;;;;;;;20.01;67.06;99927.00;4855156;28;97538;-78
2022/09/11 08:46:52;;;;;;;4.32;3.78;;;;;;;20.20;66.75;99922.84;4847162;28;96875;-80
2022/09/11 08:49:46;;;;;;;4.00;3.30;;;;;;;19.98;66.94;99921.88;4848456;28;101636;-79
2022/09/11 08:52:14;;;;;;;3.75;2.95;;;;;;;19.73;67.93;99928.31;4837949;28;101417;-81
2022/09/11 08:54:41;;;;;;;4.15;2.60;;;;;;;19.56;68.21;99934.91;4840137;28;96812;-85
2022/09/11 08:57:21;;;;;;;3.92;2.88;;;;;;;19.35;68.20;99929.44;4841251;28;97360;-84
2022/09/11 09:00:13;;;;;;;5.28;2.90;;;;;;;19.28;68.68;99930.03;4835247;28;101793;-85
2022/09/11 09:03:09;;;;;;;3.95;3.10;;;;;;;19.48;68.21;99934.66;4844071;28;101897;-85
2022/09/11 09:05:54;;;;;;;4.47;2.93;;;;;;;20.28;65.77;99923.09;4853892;28;97365;-85
2022/09/11 09:08:48;;;;;;;3.50;2.88;;;;;;;19.86;67.08;99936.19;4850845;28;97639;-84
2022/09/11 09:11:39;;;;;;;5.68;2.80;;;;;;;19.64;67.38;99939.66;4839309;28;101856;-84
2022/09/11 09:14:15;;;;;;;;;;;;;;;19.51;67.73;99930.91;4867628;28;101412;-84
2022/09/11 09:17:04;;;;;;;3.50;2.90;;;;;;;19.35;68.25;99931.25;4845877;28;97463;-84
2022/09/11 09:19:47;;;;;;;3.53;2.70;;;;;;;19.30;68.00;99906.81;4828042;28;97232;-79
2022/09/11 09:22:19;;;;;;;4.88;2.97;;;;;;;20.43;65.30;99937.81;4840009;28;101729;-81
2022/09/11 09:24:48;;;;;;;5.90;2.85;;;;;;;20.45;65.43;99940.34;4841161;28;101231;-82
2022/09/11 09:27:33;;;;;;;6.20;2.70;;;;;;;20.51;65.29;99929.22;4826757;28;98214;-81
2022/09/11 09:30:03;;;;;;;6.50;3.25;;;;;;;20.43;65.19;99942.31;4842348;28;98589;-82
2022/09/11 09:32:31;;;;;;;7.40;2.92;;;;;;;20.43;64.65;99932.50;4842917;28;101934;-89
2022/09/11 09:35:02;;;;;;;8.00;2.78;;;;;;;20.50;64.77;99948.84;4862301;28;101914;-85
2022/09/11 09:37:28;;;;;;;4.68;2.70;;;;;;;20.73;64.79;99934.50;4842618;28;96881;-89
2022/09/11 09:39:54;;;;;;;3.42;2.70;;;;;;;20.45;65.11;99935.91;4843369;28;96991;-93
2022/09/11 09:42:35;;;;;;;3.67;3.13;;;;;;;20.52;64.43;99937.09;4841316;28;99727;-92
2022/09/11 09:45:20;;;;;;;8.02;3.55;;;;;;;20.75;64.11;99940.56;4857449;28;100941;-90
2022/09/11 09:47:47;;;;;;;5.45;2.85;;;;;;;21.76;60.74;99938.31;4851748;28;97592;-92
2022/09/11 09:50:27;;;;;;;7.95;4.28;;;;;;;21.49;61.44;99942.41;4825217;28;96850;-91
2022/09/11 09:53:04;;;;;;;3.92;3.33;;;;;;;21.16;61.58;99940.75;4848628;28;98884;-89
2022/09/11 09:55:30;;;;;;;3.63;2.92;;;;;;;20.82;62.41;99929.38;4843635;28;100573;-93
2022/09/11 09:57:55;;;;;;;3.60;3.10;;;;;;;20.76;62.85;99939.56;4833501;28;97409;-92
2022/09/11 10:00:21;;;;;;;5.97;3.17;;;;;;;20.92;62.43;99919.66;4853877;28;97158;-95
2022/09/11 10:02:49;;;;;;;8.73;4.78;;;;;;;21.37;61.64;99935.44;4854551;28;98281;-89
2022/09/11 10:05:47;;;;;;;9.80;4.72;;;;;;;21.45;61.12;99949.00;4858225;28;99718;-93
2022/09/11 10:08:46;;;;;;;4.18;3.65;;;;;;;21.10;61.44;99946.59;4841416;28;96835;-87
2022/09/11 10:11:12;;;;;;;7.22;3.25;;;;;;;20.89;62.12;99943.91;4824464;28;96951;-92
2022/09/11 10:13:41;;;;;;;5.53;3.60;;;;;;;20.70;62.48;99944.56;4849938;28;101318;-95
2022/09/11 10:16:24;;;;;;;4.22;2.80;;;;;;;20.50;62.41;99948.84;4866263;28;99843;-86
2022/09/11 10:18:52;;;;;;;4.32;3.47;;;;;;;20.30;63.13;99953.09;4867740;28;97118;-90
2022/09/11 10:21:29;;;;;;;4.40;2.90;;;;;;;20.02;63.81;99935.81;4829158;28;96958;-87
2022/09/11 10:23:55;;;;;;;2.80;2.50;;;;;;;19.98;64.34;99953.84;4843931;28;97496;-86
2022/09/11 10:26:30;;;;;;;6.15;2.78;;;;;;;19.97;64.53;99954.81;4861518;28;101757;-86
2022/09/11 10:29:18;;;;;;;3.90;3.13;;;;;;;19.98;64.72;99951.19;4874248;28;97727;-87
2022/09/11 10:31:49;;;;;;;4.28;3.28;;;;;;;20.13;64.44;99946.47;4827374;28;96870;-88
2022/09/11 10:34:18;;;;;;;4.68;2.90;;;;;;;20.48;63.61;99953.47;4823710;28;101773;-93
2022/09/11 10:37:11;;;;;;;3.65;3.00;;;;;;;20.76;62.67;99962.72;4852451;28;100582;-87
2022/09/11 10:39:38;;;;;;;2.97;2.50;;;;;;;20.78;62.68;99947.47;4825176;29;97215;-89
2022/09/11 10:42:13;;;;;;;5.82;2.95;;;;;;;20.87;61.59;99944.03;4844355;28;97043;-87
2022/09/11 10:44:44;;;;;;;5.07;3.22;;;;;;;21.02;62.25;99953.41;4822053;28;101497;-86
2022/09/11 10:47:31;;;;;;;3.78;2.50;;;;;;;20.91;62.35;99944.59;4825148;28;102116;-87
2022/09/11 10:50:15;;;;;;;3.30;2.55;;;;;;;20.86;62.34;99953.00;4845849;28;96883;-89
2022/09/11 10:53:15;;;;;;;4.03;2.60;;;;;;;20.90;62.10;99929.59;4851553;28;97622;-88
2022/09/11 10:55:45;;;;;;;8.95;2.80;;;;;;;21.01;62.01;99950.88;4856026;28;98546;-87
2022/09/11 10:58:17;;;;;;;3.05;2.15;;;;;;;20.87;61.52;99930.69;4861673;28;101391;-87
2022/09/11 11:00:43;;;;;;;4.15;2.20;;;;;;;20.97;61.29;99944.97;4858024;28;97151;-89
2022/09/11 11:03:09;;;;;;;5.22;2.63;;;;;;;21.10;61.16;99950.13;4827034;28;96866;-86
2022/09/11 11:06:03;;;;;;;3.28;2.08;;;;;;;20.99;61.08;99953.66;4855856;28;101629;-83
2022/09/11 11:08:47;;;;;;;4.57;2.08;;;;;;;20.81;61.19;99960.53;4835121;28;102051;-86
2022/09/11 11:11:31;;;;;;;3.17;2.10;;;;;;;20.87;61.77;99967.19;4857483;28;97039;-84
2022/09/11 11:14:07;;;;;;;2.55;2.10;;;;;;;20.98;61.53;99961.81;4864427;28;96959;-91
2022/09/11 11:16:52;;;;;;;2.72;1.80;;;;;;;20.86;61.30;99958.34;4834988;28;100305;-87
2022/09/11 11:19:43;;;;;;;2.50;1.60;;;;;;;20.58;61.87;99960.59;4880610;28;99713;-91
2022/09/11 11:22:33;;;;;;;3.13;2.13;;;;;;;20.42;62.02;99968.13;4828430;28;97407;-83
2022/09/11 11:25:13;;;;;;;4.03;1.80;;;;;;;20.39;62.64;99972.84;4883319;28;96880;-80
2022/09/11 11:27:54;;;;;;;4.00;2.07;;;;;;;20.40;62.71;99974.56;4842723;28;101776;-78
2022/09/11 11:30:21;;;;;;;3.75;2.42;;;;;;;20.09;63.02;99956.50;4823647;28;99754;-77
2022/09/11 11:33:00;;;;;;;4.20;1.80;;;;;;;20.23;62.91;99981.22;4847988;28;97522;-76
2022/09/11 11:35:48;;;;;;;3.15;2.20;;;;;;;20.21;63.19;99973.34;4850885;28;97541;-77
2022/09/11 11:38:19;;;;;;;3.05;2.17;;;;;;;19.96;62.69;99969.13;4861622;28;98454;-78
2022/09/11 11:40:56;;;;;;;3.63;2.78;;;;;;;19.99;63.24;99970.72;4864927;28;97475;-77
2022/09/11 11:43:27;;;;;;;3.85;2.50;;;;;;;20.07;63.02;99976.25;4868641;28;97259;-82
2022/09/11 11:46:11;;;;;;;;;;;;;;;20.11;63.11;99983.91;4847004;28;96962;-83
2022/09/11 11:48:48;;;;;;;3.25;2.95;;;;;;;20.27;63.03;99977.34;4866012;28;98720;-83
2022/09/11 11:51:17;;;;;;;5.00;2.70;;;;;;;20.35;63.15;99978.41;4855274;28;101541;-84
2022/09/11 11:53:50;;;;;;;2.65;2.17;;;;;;;20.43;62.73;99983.16;4852693;28;96800;-83